This is the latest recevied weather packets stored in our database for station/object AK4NG. If no packets are shown the sender has not sent any weather packets the latest 10 day(s).
| Time | Temp. | Humidity | Pressure | Rain* | Wind** | Luminosity | Snow |
|---|---|---|---|---|---|---|---|
| 1778010874 | 26.67° C | 48% | 1014.4 hPa | 0 mm | - | 773 W/m² | - |
| 1778010572 | 27.22° C | 45% | 1014.8 hPa | 0 mm | - | 772 W/m² | - |
| 1778010269 | 26.67° C | 48% | 1014.8 hPa | 0 mm | - | 796 W/m² | - |
| 1778009968 | 26.11° C | 48% | 1015 hPa | 0 mm | - | 823 W/m² | - |
| 1778009666 | 26.11° C | 47% | 1015 hPa | 0 mm | - | 820 W/m² | - |
| 1778009364 | 26.11° C | 47% | 1015.1 hPa | 0 mm | - | 791 W/m² | - |
| 1778009062 | 26.11° C | 49% | 1014.9 hPa | 0 mm | - | 826 W/m² | - |
| 1778008759 | 26.11° C | 49% | 1014.9 hPa | 0 mm | - | 865 W/m² | - |
| 1778008458 | 26.11° C | 48% | 1014.9 hPa | 0 mm | - | 838 W/m² | - |
| 1778008154 | 26.11° C | 46% | 1015.3 hPa | 0 mm | - | 829 W/m² | - |
| 1778007849 | 26.11° C | 47% | 1015.3 hPa | 0 mm | - | 827 W/m² | - |
| 1778007545 | 26.11° C | 47% | 1015.2 hPa | 0 mm | - | 880 W/m² | - |
| 1778007242 | 26.11° C | 46% | 1015.6 hPa | 0 mm | - | 872 W/m² | - |
| 1778006938 | 26.11° C | 47% | 1015.4 hPa | 0 mm | - | 869 W/m² | - |
| 1778006635 | 25.56° C | 47% | 1015.4 hPa | 0 mm | - | 905 W/m² | - |
| 1778006332 | 25.56° C | 48% | 1015.5 hPa | 0 mm | - | 917 W/m² | - |
| 1778006029 | 25.56° C | 49% | 1015.7 hPa | 0 mm | - | 918 W/m² | - |
| 1778005726 | 26.11° C | 47% | 1015.9 hPa | 0 mm | - | 628 W/m² | - |
| 1778005422 | 26.11° C | 51% | 1015.8 hPa | 0 mm | - | 944 W/m² | - |
| 1778005119 | 25.56° C | 47% | 1016.1 hPa | 0 mm | - | 988 W/m² | - |
| 1778004817 | 25.56° C | 50% | 1016.2 hPa | 0 mm | - | 989 W/m² | - |
| 1778004513 | 26.11° C | 50% | 1016.1 hPa | 0 mm | - | 993 W/m² | - |
| 1778004210 | 25.56° C | 50% | 1016.2 hPa | 0 mm | - | 999 W/m² | - |
| 1778003906 | 25.56° C | 50% | 1016.4 hPa | 0 mm | - | 995 W/m² | - |
| 1778003603 | 25° C | 52% | 1016.2 hPa | 0 mm | - | 1007 W/m² | - |
* Rain latest hour (hover to see other rain measurements)
** Current wind speed in m/s (hover to see current wind gust speed)